This is the latest recevied weather packets stored in our database for station/object SA7AHC. If no packets are shown the sender has not sent any weather packets the latest 10 day(s).
| Time | Temp. | Humidity | Pressure | Rain* | Wind** | Luminosity | Snow |
|---|---|---|---|---|---|---|---|
| 1778155172 | 13.33° C | 37% | 1016.9 hPa | 0 mm | - | 146 W/m² | - |
| 1778154575 | 13.89° C | 38% | 1017 hPa | 0 mm | - | 142 W/m² | - |
| 1778153968 | 14.44° C | 37% | 1017 hPa | 0 mm | - | 603 W/m² | - |
| 1778153372 | 12.78° C | 38% | 1016.9 hPa | 0 mm | - | 290 W/m² | - |
| 1778152761 | 13.33° C | 35% | 1016.9 hPa | 0 mm | - | 262 W/m² | - |
| 1778152160 | 13.89° C | 39% | 1016.9 hPa | 0 mm | - | 251 W/m² | - |
| 1778151547 | 14.44° C | 40% | 1016.9 hPa | 0 mm | - | 935 W/m² | - |
| 1778150948 | 15.56° C | 36% | 1017.1 hPa | 0 mm | - | 914 W/m² | - |
| 1778150348 | 13.89° C | 40% | 1017 hPa | 0 mm | - | 854 W/m² | - |
| 1778149748 | 13.33° C | 39% | 1016.9 hPa | 0 mm | - | 849 W/m² | - |
| 1778149144 | 12.22° C | 40% | 1016.8 hPa | 0 mm | - | 251 W/m² | - |
| 1778148546 | 12.78° C | 39% | 1016.9 hPa | 0 mm | - | 779 W/m² | - |
| 1778147946 | 12.78° C | 41% | 1016.8 hPa | 0 mm | - | 758 W/m² | - |
| 1778147343 | 12.22° C | 43% | 1016.8 hPa | 0 mm | - | 749 W/m² | - |
| 1778146749 | 12.22° C | 42% | 1016.8 hPa | 0 mm | - | 740 W/m² | - |
| 1778146144 | 12.22° C | 45% | 1016.8 hPa | 0 mm | - | 729 W/m² | - |
| 1778145552 | 12.78° C | 41% | 1016.8 hPa | 0 mm | - | 719 W/m² | - |
| 1778144944 | 12.22° C | 41% | 1016.8 hPa | 0 mm | - | 705 W/m² | - |
| 1778144344 | 12.22° C | 44% | 1016.7 hPa | 0 mm | - | 693 W/m² | - |
| 1778143747 | 11.67° C | 43% | 1016.5 hPa | 0 mm | - | 679 W/m² | - |
| 1778143146 | 11.11° C | 43% | 1016.5 hPa | 0 mm | - | 666 W/m² | - |
| 1778142544 | 10.56° C | 47% | 1016.3 hPa | 0 mm | - | 647 W/m² | - |
| 1778141947 | 10.56° C | 45% | 1016.3 hPa | 0 mm | - | 631 W/m² | - |
| 1778141348 | 10.56° C | 44% | 1016.2 hPa | 0 mm | - | 613 W/m² | - |
| 1778140755 | 10.56° C | 46% | 1016.2 hPa | 0 mm | - | 592 W/m² | - |
* Rain latest hour (hover to see other rain measurements)
** Current wind speed in m/s (hover to see current wind gust speed)